Time;durP1;ratioP1;P1;durP2;ratioP2;P2;SDS_P1;SDS_P2;PMS_P1;PMS_P2;Temp;Humidity;BMP_temperature;BMP_pressure;BME280_temperature;BME280_humidity;BME280_pressure;Samples;Min_cycle;Max_cycle;Signal;HPM_P1;HPM_P2
2023/03/11 00:01:10;;;;;;;10.68;2.03;;;;;;;0.19;100.00;100407.66;5034674;28;20057;-79
2023/03/11 00:03:37;;;;;;;9.18;2.67;;;;;;;0.19;100.00;100405.09;5053405;28;20404;-79
2023/03/11 00:06:06;;;;;;;7.47;1.77;;;;;;;0.22;100.00;100411.22;5028727;28;20489;-79
2023/03/11 00:08:33;;;;;;;5.47;1.70;;;;;;;0.22;100.00;100418.97;4991816;28;20805;-79
2023/03/11 00:11:01;;;;;;;4.18;1.92;;;;;;;0.19;100.00;100425.81;5038761;28;20053;-80
2023/03/11 00:13:29;;;;;;;6.53;1.67;;;;;;;0.15;100.00;100433.41;5034811;28;20049;-80
2023/03/11 00:15:58;;;;;;;7.97;1.70;;;;;;;0.14;100.00;100424.75;5038087;28;20056;-78
2023/03/11 00:18:28;;;;;;;7.00;1.40;;;;;;;0.11;100.00;100428.91;5025114;28;20053;-79
2023/03/11 00:20:57;;;;;;;5.18;1.35;;;;;;;0.09;100.00;100436.63;5010138;28;20060;-79
2023/03/11 00:23:26;;;;;;;2.15;1.38;;;;;;;0.09;100.00;100444.41;5028061;28;20269;-79
2023/03/11 00:25:53;;;;;;;11.05;1.38;;;;;;;0.10;100.00;100460.84;5013167;28;20060;-79
2023/03/11 00:28:24;;;;;;;6.85;2.00;;;;;;;0.09;100.00;100465.13;5053394;28;20040;-79
2023/03/11 00:30:52;;;;;;;6.85;1.88;;;;;;;0.09;100.00;100467.72;5034734;28;20049;-80
2023/03/11 00:33:21;;;;;;;6.55;1.98;;;;;;;0.11;100.00;100462.59;5035092;28;20064;-79
2023/03/11 00:35:48;;;;;;;6.18;1.45;;;;;;;0.11;100.00;100470.38;5020128;28;20061;-79
2023/03/11 00:38:17;;;;;;;6.93;1.50;;;;;;;0.10;100.00;100471.22;5022995;28;20048;-78
2023/03/11 00:40:47;;;;;;;4.10;1.15;;;;;;;0.10;100.00;100484.19;5025518;28;20063;-79
2023/03/11 00:43:15;;;;;;;6.38;1.60;;;;;;;0.11;100.00;100478.16;5026717;28;20510;-79
2023/03/11 00:45:43;;;;;;;6.15;1.30;;;;;;;0.09;100.00;100487.56;5032041;28;20076;-79
2023/03/11 00:48:12;;;;;;;2.58;1.10;;;;;;;0.08;100.00;100497.06;5031957;28;20052;-79
2023/03/11 00:50:40;;;;;;;7.63;1.27;;;;;;;0.05;100.00;100499.53;5014485;28;20045;-78
2023/03/11 00:53:10;;;;;;;4.28;1.50;;;;;;;0.05;100.00;100502.09;5031389;28;20486;-79
2023/03/11 00:55:37;;;;;;;8.45;1.27;;;;;;;0.02;100.00;100509.78;5000034;28;20045;-80
2023/03/11 00:58:09;;;;;;;6.18;1.30;;;;;;;0.01;100.00;100504.53;5045106;28;20049;-79
2023/03/11 01:00:41;;;;;;;3.05;1.30;;;;;;;0.01;100.00;100509.72;5049084;28;20049;-80
2023/03/11 01:03:09;;;;;;;4.07;1.05;;;;;;;0.02;100.00;100512.38;5036454;28;20048;-79
2023/03/11 01:05:36;;;;;;;4.78;1.40;;;;;;;0.01;100.00;100515.78;5009800;28;20056;-79
2023/03/11 01:08:04;;;;;;;3.55;1.10;;;;;;;0.04;100.00;100520.19;5039322;28;20056;-79
2023/03/11 01:10:33;;;;;;;4.20;2.03;;;;;;;0.04;100.00;100515.91;5011063;28;20057;-78
2023/03/11 01:13:00;;;;;;;4.00;1.20;;;;;;;0.07;100.00;100518.59;5050609;28;20075;-79
2023/03/11 01:15:32;;;;;;;6.03;1.05;;;;;;;0.09;100.00;100527.31;5050210;28;20041;-78
2023/03/11 01:18:00;;;;;;;11.10;1.52;;;;;;;0.10;100.00;100525.63;5036328;28;20053;-79
2023/03/11 01:20:28;;;;;;;3.63;1.30;;;;;;;0.12;100.00;100527.44;5035291;28;20054;-79
2023/03/11 01:22:55;;;;;;;3.47;1.15;;;;;;;0.14;100.00;100537.88;5003420;28;20049;-79
2023/03/11 01:25:23;;;;;;;3.40;1.20;;;;;;;0.15;100.00;100539.63;5009657;28;20045;-79
2023/03/11 01:27:51;;;;;;;3.13;1.20;;;;;;;0.16;100.00;100549.19;5023895;28;20056;-79
2023/03/11 01:30:21;;;;;;;3.13;1.10;;;;;;;0.17;100.00;100545.75;5035145;28;20057;-79
2023/03/11 01:32:51;;;;;;;2.53;0.88;;;;;;;0.18;100.00;100547.53;5036047;28;20124;-79
2023/03/11 01:35:24;;;;;;;2.45;1.10;;;;;;;0.17;100.00;100554.44;5033037;28;20418;-79
2023/03/11 01:37:53;;;;;;;3.35;1.00;;;;;;;0.15;100.00;100557.78;5058920;28;20048;-79
2023/03/11 01:40:34;;;;;;;3.85;0.98;;;;;;;0.10;100.00;100570.56;5019130;28;20057;-79
2023/03/11 01:43:26;;;;;;;2.53;1.05;;;;;;;0.06;100.00;100570.34;5012176;28;20041;-78
2023/03/11 01:45:54;;;;;;;6.45;1.23;;;;;;;-0.01;100.00;100567.50;5053390;28;20056;-79
2023/03/11 01:48:24;;;;;;;2.28;0.95;;;;;;;-0.05;100.00;100572.53;5034134;28;20053;-81
2023/03/11 01:50:53;;;;;;;2.83;1.17;;;;;;;-0.11;100.00;100587.81;5023467;28;20037;-78
2023/03/11 01:53:21;;;;;;;3.35;1.23;;;;;;;-0.16;100.00;100577.25;5013798;28;20695;-81
2023/03/11 01:55:49;;;;;;;2.65;1.02;;;;;;;-0.15;100.00;100581.63;5010744;28;20056;-79
2023/03/11 01:58:21;;;;;;;1.48;0.90;;;;;;;-0.15;100.00;100585.88;4985588;28;20053;-81
2023/03/11 02:00:49;;;;;;;2.53;1.00;;;;;;;-0.13;100.00;100579.97;5026491;28;20052;-81
2023/03/11 02:03:24;;;;;;;1.35;0.90;;;;;;;-0.13;100.00;100577.38;5033012;28;20048;-80
2023/03/11 02:05:54;;;;;;;4.03;1.20;;;;;;;-0.10;100.00;100579.19;5043398;28;20064;-81
2023/03/11 02:08:22;;;;;;;2.90;1.10;;;;;;;-0.07;100.00;100580.22;5005088;28;20045;-81
2023/03/11 02:10:51;;;;;;;4.65;1.45;;;;;;;-0.06;100.00;100587.19;5018558;28;20060;-80
2023/03/11 02:13:19;;;;;;;1.95;1.00;;;;;;;-0.06;100.00;100582.00;4989436;28;20046;-80
2023/03/11 02:15:47;;;;;;;4.90;1.95;;;;;;;-0.05;100.00;100590.66;5013364;28;20776;-78
2023/03/11 02:18:21;;;;;;;2.50;1.33;;;;;;;-0.03;100.00;100594.19;5015644;28;20041;-78
2023/03/11 02:20:58;;;;;;;1.92;1.75;;;;;;;-0.03;100.00;100595.06;5011918;28;20061;-81
2023/03/11 02:23:33;;;;;;;2.65;1.13;;;;;;;-0.04;100.00;100593.31;5003935;28;20045;-80
2023/03/11 02:26:10;;;;;;;2.63;1.05;;;;;;;-0.04;100.00;100588.13;5027168;28;20056;-80
2023/03/11 02:28:38;;;;;;;4.43;1.33;;;;;;;-0.05;100.00;100588.06;4993844;28;20041;-80
2023/03/11 02:31:06;;;;;;;2.13;1.40;;;;;;;-0.07;100.00;100593.16;5035520;28;20180;-81
2023/03/11 02:33:36;;;;;;;3.05;1.27;;;;;;;-0.09;100.00;100583.56;5030419;28;20049;-80
2023/03/11 02:36:04;;;;;;;3.88;1.10;;;;;;;-0.13;100.00;100592.91;5028929;28;20056;-81
2023/03/11 02:38:32;;;;;;;4.53;1.13;;;;;;;-0.18;100.00;100590.97;4991023;28;20048;-80
2023/03/11 02:41:00;;;;;;;1.50;0.90;;;;;;;-0.22;100.00;100595.13;5016861;28;20045;-80
2023/03/11 02:43:43;;;;;;;2.67;1.02;;;;;;;-0.28;100.00;100594.88;4976112;28;20057;-80
2023/03/11 02:46:14;;;;;;;4.43;1.20;;;;;;;-0.31;100.00;100605.97;4998455;28;20045;-80
2023/03/11 02:48:42;;;;;;;5.43;1.05;;;;;;;-0.31;100.00;100603.38;5021915;28;20057;-79
2023/03/11 02:51:11;;;;;;;4.05;1.05;;;;;;;-0.34;100.00;100611.03;5018247;28;20060;-80
2023/03/11 02:53:46;;;;;;;2.83;1.33;;;;;;;-0.35;100.00;100618.72;5015438;28;20404;-80
2023/03/11 02:56:14;;;;;;;2.20;0.70;;;;;;;-0.39;100.00;100607.34;5047934;28;20057;-80
2023/03/11 02:58:42;;;;;;;2.90;1.10;;;;;;;-0.42;100.00;100607.19;4951317;28;20056;-79
2023/03/11 03:01:10;;;;;;;3.65;1.20;;;;;;;-0.46;100.00;100616.53;5022356;28;20041;-80
2023/03/11 03:03:39;;;;;;;2.45;0.90;;;;;;;-0.47;100.00;100616.50;5000054;28;20050;-80
2023/03/11 03:06:06;;;;;;;2.03;1.10;;;;;;;-0.50;100.00;100619.81;5017901;28;20064;-80
2023/03/11 03:08:34;;;;;;;4.70;1.15;;;;;;;-0.50;100.00;100621.50;5007661;28;20060;-80
2023/03/11 03:11:02;;;;;;;2.33;1.00;;;;;;;-0.52;100.00;100624.03;5007104;28;20052;-80
2023/03/11 03:13:31;;;;;;;1.83;0.90;;;;;;;-0.52;100.00;100623.16;5012584;28;20049;-80
2023/03/11 03:15:59;;;;;;;3.15;1.00;;;;;;;-0.52;100.00;100629.22;4993841;28;20061;-80
2023/03/11 03:18:27;;;;;;;3.08;0.82;;;;;;;-0.54;100.00;100643.78;5016446;28;20399;-80
2023/03/11 03:20:54;;;;;;;3.85;1.25;;;;;;;-0.56;100.00;100635.06;5017706;28;20057;-79
2023/03/11 03:23:22;;;;;;;5.68;1.30;;;;;;;-0.55;100.00;100646.31;5017917;28;20046;-79
2023/03/11 03:25:49;;;;;;;5.93;1.35;;;;;;;-0.57;100.00;100645.34;4989461;28;20062;-80
2023/03/11 03:28:17;;;;;;;2.45;1.10;;;;;;;-0.57;100.00;100640.16;5019346;28;20042;-80
2023/03/11 03:30:45;;;;;;;4.40;1.15;;;;;;;-0.59;100.00;100640.09;4955736;28;20045;-80
2023/03/11 03:33:13;;;;;;;5.40;1.17;;;;;;;-0.59;100.00;100645.28;5033873;28;20053;-80
2023/03/11 03:35:43;;;;;;;2.25;1.00;;;;;;;-0.61;100.00;100652.09;5036548;28;20061;-80
2023/03/11 03:38:23;;;;;;;4.85;1.27;;;;;;;-0.63;100.00;100648.56;5014971;28;20139;-78
2023/03/11 03:40:52;;;;;;;7.25;1.67;;;;;;;-0.63;100.00;100653.72;5000843;28;20048;-79
2023/03/11 03:43:20;;;;;;;4.75;1.00;;;;;;;-0.64;100.00;100663.19;5014727;28;20046;-81
2023/03/11 03:46:00;;;;;;;2.15;0.90;;;;;;;-0.63;100.00;100664.06;4972288;28;20462;-80
2023/03/11 03:48:32;;;;;;;1.65;0.90;;;;;;;-0.66;100.00;100664.84;5034915;28;20041;-80
2023/03/11 03:51:03;;;;;;;1.23;0.80;;;;;;;-0.67;100.00;100662.16;5042967;28;20045;-80
2023/03/11 03:53:34;;;;;;;2.20;1.02;;;;;;;-0.71;100.00;100661.16;5002508;28;20046;-79
2023/03/11 03:56:07;;;;;;;2.47;1.83;;;;;;;-0.72;100.00;100671.41;5015209;28;20056;-79
2023/03/11 03:58:36;;;;;;;2.92;1.00;;;;;;;-0.75;100.00;100676.47;4981531;28;20041;-79
2023/03/11 04:01:04;;;;;;;5.70;0.90;;;;;;;-0.80;100.00;100674.53;4957155;28;20068;-79
2023/03/11 04:03:33;;;;;;;3.30;1.33;;;;;;;-0.81;100.00;100669.31;4997752;28;20054;-79
2023/03/11 04:06:14;;;;;;;2.45;1.15;;;;;;;-0.82;100.00;100673.56;5016623;28;20064;-79
2023/03/11 04:08:42;;;;;;;3.08;1.33;;;;;;;-0.83;100.00;100684.75;5029676;28;20048;-79
2023/03/11 04:11:12;;;;;;;3.15;1.17;;;;;;;-0.82;100.00;100677.88;4997038;28;20049;-78
2023/03/11 04:13:43;;;;;;;5.38;1.38;;;;;;;-0.83;100.00;100687.34;5019285;28;20383;-79
2023/03/11 04:16:17;;;;;;;4.45;1.40;;;;;;;-0.85;100.00;100677.72;5025569;28;20057;-79
2023/03/11 04:18:45;;;;;;;1.77;1.00;;;;;;;-0.88;100.00;100693.13;4998149;28;20410;-79
2023/03/11 04:21:13;;;;;;;2.28;1.30;;;;;;;-0.93;100.00;100690.31;5015222;28;20053;-79
2023/03/11 04:23:41;;;;;;;0.90;0.90;;;;;;;-0.96;100.00;100691.84;5012647;28;20041;-79
2023/03/11 04:26:11;;;;;;;4.50;1.15;;;;;;;-0.99;100.00;100701.25;4994368;28;20060;-78
2023/03/11 04:28:38;;;;;;;3.08;1.15;;;;;;;-1.02;100.00;100697.63;4985882;28;20066;-81
2023/03/11 04:31:06;;;;;;;4.20;1.30;;;;;;;-1.06;100.00;100704.38;5016005;28;20057;-80
2023/03/11 04:33:34;;;;;;;6.35;2.08;;;;;;;-1.08;100.00;100699.94;4972101;28;20080;-78
2023/03/11 04:36:06;;;;;;;2.28;1.25;;;;;;;-1.13;100.00;100707.47;5014427;28;20057;-79
2023/03/11 04:38:35;;;;;;;3.63;1.60;;;;;;;-1.15;100.00;100716.88;5012086;28;20049;-79
2023/03/11 04:41:05;;;;;;;2.75;1.30;;;;;;;-1.18;100.00;100719.28;5006570;28;20061;-78
2023/03/11 04:43:34;;;;;;;9.23;1.58;;;;;;;-1.19;100.00;100722.72;5002850;28;20045;-78
2023/03/11 04:46:02;;;;;;;5.95;1.30;;;;;;;-1.19;100.00;100728.75;5024340;28;20056;-80
2023/03/11 04:48:29;;;;;;;3.47;1.35;;;;;;;-1.23;100.00;100732.00;4988042;28;20502;-81
2023/03/11 04:50:57;;;;;;;5.65;1.10;;;;;;;-1.25;100.00;100732.72;4972750;28;20057;-80
2023/03/11 04:53:26;;;;;;;3.67;1.38;;;;;;;-1.27;100.00;100729.19;4998278;28;20080;-78
2023/03/11 04:55:54;;;;;;;3.75;1.70;;;;;;;-1.33;100.00;100732.34;5013693;28;20509;-79
2023/03/11 04:58:21;;;;;;;7.28;1.48;;;;;;;-1.34;100.00;100733.19;4972936;28;20050;-79
2023/03/11 05:00:49;;;;;;;1.95;1.45;;;;;;;-1.37;100.00;100735.59;4992325;28;20050;-79
2023/03/11 05:03:17;;;;;;;8.13;1.30;;;;;;;-1.40;100.00;100738.03;4973645;28;20060;-79
2023/03/11 05:05:44;;;;;;;3.88;1.38;;;;;;;-1.43;100.00;100740.47;5041852;28;20045;-80
2023/03/11 05:08:12;;;;;;;3.20;1.40;;;;;;;-1.47;100.00;100738.56;5008480;28;20048;-80
2023/03/11 05:10:41;;;;;;;4.63;1.52;;;;;;;-1.54;100.00;100745.09;5024944;28;20141;-79
2023/03/11 05:13:09;;;;;;;2.83;1.63;;;;;;;-1.59;100.00;100752.63;5020332;28;20049;-79
2023/03/11 05:15:39;;;;;;;5.85;2.10;;;;;;;-1.64;100.00;100741.19;5028020;28;20052;-80
2023/03/11 05:18:07;;;;;;;4.70;1.50;;;;;;;-1.68;100.00;100747.00;4998049;28;20409;-79
2023/03/11 05:20:37;;;;;;;4.38;1.35;;;;;;;-1.72;100.00;100755.41;5050808;28;20053;-79
2023/03/11 05:23:05;;;;;;;5.05;1.63;;;;;;;-1.75;100.00;100767.28;5030125;28;20053;-79
2023/03/11 05:25:34;;;;;;;3.28;1.13;;;;;;;-1.82;100.00;100759.19;5033676;28;20061;-79
2023/03/11 05:28:03;;;;;;;2.78;1.40;;;;;;;-1.87;100.00;100765.84;5020102;28;20049;-79
2023/03/11 05:30:34;;;;;;;5.38;1.30;;;;;;;-1.89;100.00;100762.28;5009975;28;20060;-80
2023/03/11 05:33:02;;;;;;;10.63;4.93;;;;;;;-1.92;100.00;100761.25;5031850;28;20045;-79
2023/03/11 05:35:30;;;;;;;4.47;2.20;;;;;;;-1.94;100.00;100758.56;4958362;28;20050;-79
2023/03/11 05:37:57;;;;;;;4.68;1.80;;;;;;;-1.96;100.00;100762.78;5016548;28;20049;-79
2023/03/11 05:40:27;;;;;;;4.93;1.90;;;;;;;-1.98;100.00;100772.13;5033190;28;20045;-79
2023/03/11 05:42:55;;;;;;;5.65;2.03;;;;;;;-2.00;100.00;100773.75;5001389;28;20312;-79
2023/03/11 05:45:24;;;;;;;4.28;1.63;;;;;;;-2.01;100.00;100778.00;4986268;28;20049;-79
2023/03/11 05:47:53;;;;;;;4.15;1.60;;;;;;;-2.04;100.00;100788.19;5025245;28;20172;-79
2023/03/11 05:50:21;;;;;;;3.17;1.30;;;;;;;-2.06;100.00;100789.81;4987660;28;20051;-80
2023/03/11 05:52:49;;;;;;;4.60;1.40;;;;;;;-2.07;100.00;100784.56;5024089;28;20055;-80
2023/03/11 05:55:18;;;;;;;5.80;1.45;;;;;;;-2.10;100.00;100782.69;4999030;28;20388;-80
2023/03/11 05:57:50;;;;;;;3.15;1.30;;;;;;;-2.11;100.00;100799.00;5003680;28;20056;-79
2023/03/11 06:00:19;;;;;;;;;;;;;;;-2.13;100.00;100798.03;5022272;28;20060;-79
2023/03/11 06:02:50;;;;;;;5.90;1.55;;;;;;;-2.14;100.00;100804.00;4997898;28;20389;-80
2023/03/11 06:05:18;;;;;;;6.20;1.60;;;;;;;-2.16;100.00;100808.19;4974242;28;20075;-79
2023/03/11 06:07:48;;;;;;;1.97;1.53;;;;;;;-2.16;100.00;100815.94;5025914;28;20062;-79
2023/03/11 06:10:16;;;;;;;6.30;2.05;;;;;;;-2.17;100.00;100819.34;4971249;28;20061;-78
2023/03/11 06:12:44;;;;;;;5.30;1.85;;;;;;;-2.16;100.00;100821.09;5012048;28;20064;-79
2023/03/11 06:15:28;;;;;;;4.20;1.83;;;;;;;-2.15;100.00;100822.88;4977860;28;20056;-79
2023/03/11 06:17:56;;;;;;;3.75;1.85;;;;;;;-2.16;100.00;100821.97;5028186;28;20509;-79
2023/03/11 06:20:25;;;;;;;1.58;1.45;;;;;;;-2.14;100.00;100824.66;4969340;28;20056;-79
2023/03/11 06:22:52;;;;;;;4.05;1.52;;;;;;;-2.13;100.00;100829.03;5013689;28;20064;-79
2023/03/11 06:25:22;;;;;;;5.28;1.33;;;;;;;-2.13;100.00;100828.13;5005740;28;20528;-79
2023/03/11 06:27:52;;;;;;;3.47;1.83;;;;;;;-2.11;100.00;100827.41;5017877;28;20061;-78
2023/03/11 06:30:20;;;;;;;4.32;1.80;;;;;;;-2.10;100.00;100834.31;4993723;28;21049;-78
2023/03/11 06:32:55;;;;;;;5.03;1.50;;;;;;;-2.09;100.00;100841.28;5004759;28;20828;-78
2023/03/11 06:35:23;;;;;;;5.32;1.58;;;;;;;-2.07;100.00;100842.25;5004671;28;20124;-79
2023/03/11 06:37:50;;;;;;;4.95;1.90;;;;;;;-2.07;100.00;100844.84;5015663;28;20514;-78
2023/03/11 06:40:18;;;;;;;5.00;1.83;;;;;;;-2.04;100.00;100845.00;4982629;28;24237;-79
2023/03/11 06:42:49;;;;;;;5.28;1.60;;;;;;;-2.03;100.00;100853.63;5014586;28;20053;-78
2023/03/11 06:45:18;;;;;;;7.45;1.58;;;;;;;-1.99;100.00;100848.72;5019974;28;20461;-78
2023/03/11 06:47:47;;;;;;;2.67;1.70;;;;;;;-1.95;100.00;100862.69;5001022;28;20048;-78
2023/03/11 06:50:16;;;;;;;3.28;1.25;;;;;;;-1.88;100.00;100867.38;5025570;28;20041;-79
2023/03/11 06:52:43;;;;;;;4.22;1.65;;;;;;;-1.78;100.00;100866.16;4964200;28;20053;-78
2023/03/11 06:55:11;;;;;;;5.68;1.50;;;;;;;-1.64;100.00;100865.22;5025383;28;20037;-79
2023/03/11 06:57:38;;;;;;;3.28;1.75;;;;;;;-1.40;100.00;100875.94;5034155;28;20414;-79
2023/03/11 07:00:11;;;;;;;14.38;1.98;;;;;;;-1.09;100.00;100877.50;5010241;28;20060;-79
2023/03/11 07:02:41;;;;;;;14.32;3.58;;;;;;;-0.64;100.00;100871.97;5002937;28;20422;-78
2023/03/11 07:05:11;;;;;;;14.13;6.00;;;;;;;0.08;100.00;100871.88;4986498;28;20050;-79
2023/03/11 07:07:39;;;;;;;21.35;7.78;;;;;;;0.73;100.00;100876.50;4975405;28;20060;-79
2023/03/11 07:10:06;;;;;;;4.25;2.40;;;;;;;1.15;100.00;100879.19;5009579;28;20053;-78
2023/03/11 07:12:34;;;;;;;4.30;1.90;;;;;;;1.46;100.00;100880.44;4958903;28;20688;-78
2023/03/11 07:15:02;;;;;;;8.25;6.07;;;;;;;1.68;100.00;100886.47;5023836;28;20042;-78
2023/03/11 07:17:31;;;;;;;13.95;11.00;;;;;;;1.55;100.00;100886.00;5005743;28;20088;-78
2023/03/11 07:19:58;;;;;;;8.40;6.03;;;;;;;1.28;100.00;100890.06;4985637;28;20056;-79
2023/03/11 07:22:26;;;;;;;6.65;3.97;;;;;;;1.00;100.00;100894.06;4955163;28;20056;-79
2023/03/11 07:24:53;;;;;;;3.28;2.40;;;;;;;0.83;100.00;100897.66;5011286;28;20108;-79
2023/03/11 07:27:21;;;;;;;4.93;1.75;;;;;;;0.64;100.00;100899.44;4999383;28;20064;-79
2023/03/11 07:29:49;;;;;;;6.20;1.55;;;;;;;0.48;100.00;100909.97;5014333;28;20060;-78
2023/03/11 07:32:16;;;;;;;4.90;1.20;;;;;;;0.35;100.00;100912.00;5010436;28;20045;-79
2023/03/11 07:34:44;;;;;;;5.88;1.30;;;;;;;0.30;100.00;100918.72;5018667;28;20064;-79
2023/03/11 07:37:11;;;;;;;2.40;1.30;;;;;;;0.34;100.00;100914.53;4966067;28;20057;-78
2023/03/11 07:39:38;;;;;;;4.70;1.80;;;;;;;0.51;100.00;100923.06;5008741;28;20052;-77
2023/03/11 07:42:06;;;;;;;3.58;1.65;;;;;;;0.83;100.00;100919.28;5007697;28;20041;-78
2023/03/11 07:44:35;;;;;;;3.13;1.58;;;;;;;1.23;100.00;100917.53;4998408;28;20056;-78
2023/03/11 07:47:05;;;;;;;8.82;2.90;;;;;;;1.57;100.00;100925.03;5010141;28;20068;-78
2023/03/11 07:49:34;;;;;;;2.92;1.42;;;;;;;1.87;100.00;100930.56;4991673;28;20050;-79
2023/03/11 07:52:02;;;;;;;6.28;2.20;;;;;;;2.25;100.00;100933.78;4992133;28;20045;-78
2023/03/11 07:54:30;;;;;;;4.40;1.52;;;;;;;2.60;100.00;100931.59;4952442;28;20053;-77
2023/03/11 07:56:57;;;;;;;5.07;1.65;;;;;;;2.95;100.00;100933.69;4985051;28;20060;-78
2023/03/11 07:59:25;;;;;;;2.38;1.20;;;;;;;3.22;100.00;100936.41;5006801;28;20038;-78
2023/03/11 08:01:52;;;;;;;5.68;1.48;;;;;;;3.51;100.00;100932.16;5024019;28;20037;-77
2023/03/11 08:04:20;;;;;;;6.40;1.75;;;;;;;3.77;100.00;100935.63;5030092;28;20045;-77
2023/03/11 08:06:47;;;;;;;3.58;1.10;;;;;;;3.98;100.00;100938.00;4992372;28;20055;-77
2023/03/11 08:09:14;;;;;;;5.82;1.20;;;;;;;4.23;100.00;100942.25;4970739;28;20421;-77
2023/03/11 08:11:42;;;;;;;2.20;1.25;;;;;;;4.35;100.00;100938.25;5009472;28;20129;-77
2023/03/11 08:14:09;;;;;;;5.22;1.48;;;;;;;4.43;100.00;100942.00;5031020;28;20045;-77
2023/03/11 08:16:39;;;;;;;4.38;1.30;;;;;;;4.54;100.00;100953.63;4982575;28;20061;-78
2023/03/11 08:19:06;;;;;;;4.43;1.30;;;;;;;4.71;100.00;100946.28;5028437;28;20068;-78
2023/03/11 08:21:33;;;;;;;8.45;1.77;;;;;;;4.89;100.00;100951.13;4985843;28;20495;-77
2023/03/11 08:24:01;;;;;;;1.80;1.10;;;;;;;4.87;100.00;100958.91;4984514;28;20044;-78
2023/03/11 08:26:30;;;;;;;5.93;1.42;;;;;;;4.97;100.00;100951.34;5004957;28;20061;-77
2023/03/11 08:28:58;;;;;;;10.18;1.60;;;;;;;5.02;100.00;100961.06;5056951;28;20041;-77
2023/03/11 08:31:28;;;;;;;3.95;1.13;;;;;;;5.07;100.00;100961.22;5010555;28;20045;-77
2023/03/11 08:34:05;;;;;;;5.38;1.50;;;;;;;5.05;100.00;100965.50;5052559;28;20049;-77
2023/03/11 08:36:33;;;;;;;4.55;1.20;;;;;;;5.11;100.00;100964.81;5001865;28;20421;-79
2023/03/11 08:39:01;;;;;;;3.30;1.33;;;;;;;5.08;100.00;100963.88;5020594;28;20053;-76
2023/03/11 08:41:28;;;;;;;6.13;1.33;;;;;;;5.08;100.00;100966.50;4982687;28;20057;-78
2023/03/11 08:43:56;;;;;;;4.40;1.05;;;;;;;5.02;100.00;100961.06;5023628;28;20061;-78
2023/03/11 08:46:26;;;;;;;6.47;1.25;;;;;;;4.95;100.00;100961.75;5022629;28;20049;-78
2023/03/11 08:48:55;;;;;;;4.13;1.25;;;;;;;4.95;100.00;100972.19;5016798;28;20418;-77
2023/03/11 08:51:30;;;;;;;5.97;1.50;;;;;;;4.92;100.00;100971.25;5017344;28;20082;-77
2023/03/11 08:53:59;;;;;;;5.75;1.75;;;;;;;5.02;100.00;100968.03;5021012;28;20048;-77
2023/03/11 08:56:26;;;;;;;6.28;1.30;;;;;;;5.21;100.00;100985.09;4991559;28;20736;-77
2023/03/11 08:58:54;;;;;;;3.92;1.00;;;;;;;5.18;100.00;100977.16;5033100;28;20040;-78
2023/03/11 09:01:22;;;;;;;2.83;1.40;;;;;;;5.23;100.00;100981.66;5026522;28;20057;-78
2023/03/11 09:03:50;;;;;;;5.57;1.20;;;;;;;5.24;100.00;100995.63;5040617;28;20056;-77
2023/03/11 09:06:17;;;;;;;6.10;1.25;;;;;;;5.32;100.00;100986.25;5030282;28;20057;-78
2023/03/11 09:08:45;;;;;;;2.75;1.20;;;;;;;5.33;100.00;100984.53;5019044;28;20045;-77
2023/03/11 09:11:14;;;;;;;5.28;0.98;;;;;;;5.23;100.00;100991.25;5000004;28;20493;-78
2023/03/11 09:13:42;;;;;;;4.32;1.65;;;;;;;5.24;100.00;100993.03;5030251;28;20045;-78
2023/03/11 09:16:19;;;;;;;3.10;1.30;;;;;;;5.29;100.00;100983.56;5030637;28;20053;-77
2023/03/11 09:18:48;;;;;;;5.25;1.98;;;;;;;5.31;100.00;100986.22;5037130;28;20044;-77
2023/03/11 09:21:16;;;;;;;6.20;1.20;;;;;;;5.17;100.00;100988.47;5029856;28;20052;-78
2023/03/11 09:23:43;;;;;;;8.10;1.48;;;;;;;4.95;100.00;100987.84;5016041;28;20544;-77
2023/03/11 09:26:12;;;;;;;4.28;1.67;;;;;;;4.77;100.00;100998.66;4956274;28;20096;-77
2023/03/11 09:28:41;;;;;;;2.72;1.27;;;;;;;4.54;100.00;100984.94;5043979;28;20041;-78
2023/03/11 09:31:08;;;;;;;5.90;1.40;;;;;;;4.38;100.00;100998.34;5015002;28;20060;-78
2023/03/11 09:33:41;;;;;;;3.47;1.30;;;;;;;4.20;100.00;100994.34;5036181;28;20508;-79
2023/03/11 09:36:14;;;;;;;2.53;1.48;;;;;;;4.10;100.00;100985.34;5042958;28;20079;-78
2023/03/11 09:38:41;;;;;;;6.50;2.63;;;;;;;4.08;100.00;100993.94;5012890;28;20080;-78
2023/03/11 09:41:34;;;;;;;5.20;1.25;;;;;;;4.02;100.00;100991.16;4966828;28;20056;-78
2023/03/11 09:44:35;;;;;;;4.82;1.48;;;;;;;3.89;100.00;100982.94;5038336;28;20052;-79
2023/03/11 09:47:21;;;;;;;2.45;1.58;;;;;;;3.90;100.00;100987.31;5046683;28;20052;-79
2023/03/11 09:49:58;;;;;;;4.95;1.40;;;;;;;3.94;100.00;100987.41;5016383;28;20052;-79
2023/03/11 09:53:07;;;;;;;10.93;1.60;;;;;;;3.86;100.00;100988.06;5044447;28;20041;-79
2023/03/11 09:55:43;;;;;;;6.95;1.30;;;;;;;3.87;100.00;100983.72;5039709;28;20056;-79
2023/03/11 09:58:36;;;;;;;2.60;1.23;;;;;;;3.95;100.00;100992.69;4985642;28;20061;-79
2023/03/11 10:01:41;;;;;;;5.00;1.60;;;;;;;4.01;100.00;100998.09;5027920;28;20061;-79
2023/03/11 10:04:26;;;;;;;5.72;1.55;;;;;;;4.03;100.00;100986.00;5020885;28;20053;-79
2023/03/11 10:06:55;;;;;;;8.85;3.13;;;;;;;4.06;100.00;100995.63;5029878;28;20049;-79
2023/03/11 10:09:35;;;;;;;3.97;2.38;;;;;;;4.09;100.00;100985.31;5018237;28;20053;-78
2023/03/11 10:12:14;;;;;;;8.73;2.95;;;;;;;4.07;100.00;100992.19;4984937;28;20454;-79
2023/03/11 10:14:47;;;;;;;8.43;1.60;;;;;;;4.12;100.00;100984.50;5040315;28;20056;-79
2023/03/11 10:17:54;;;;;;;4.60;2.55;;;;;;;4.14;100.00;100982.81;5032077;28;20049;-79
2023/03/11 10:20:25;;;;;;;4.30;1.60;;;;;;;4.11;100.00;100988.84;5003783;28;20049;-79
2023/03/11 10:23:05;;;;;;;3.72;1.48;;;;;;;4.17;100.00;100990.75;5027097;28;20405;-78
2023/03/11 10:25:55;;;;;;;2.53;1.27;;;;;;;4.22;100.00;100986.56;5020008;28;20053;-78
2023/03/11 10:28:32;;;;;;;3.50;1.35;;;;;;;4.25;100.00;100984.03;5007969;28;20057;-78
2023/03/11 10:31:06;;;;;;;3.75;1.15;;;;;;;4.27;100.00;100985.88;5027741;28;20064;-79
2023/03/11 10:33:43;;;;;;;3.25;1.30;;;;;;;4.35;100.00;100986.13;5009194;28;20060;-79
2023/03/11 10:36:22;;;;;;;5.80;1.77;;;;;;;4.42;100.00;100987.16;5030715;28;20059;-77
2023/03/11 10:38:52;;;;;;;4.72;1.30;;;;;;;4.47;100.00;100983.00;5044980;28;20072;-77
2023/03/11 10:41:40;;;;;;;6.50;1.42;;;;;;;4.51;100.00;100983.97;5049464;28;20147;-78
2023/03/11 10:44:16;;;;;;;5.13;1.33;;;;;;;4.53;100.00;100984.91;4982944;28;20046;-79
2023/03/11 10:46:44;;;;;;;7.03;1.63;;;;;;;4.56;100.00;100998.06;5048418;28;20052;-79
2023/03/11 10:49:14;;;;;;;3.92;1.42;;;;;;;4.56;100.00;100993.69;5010193;28;20421;-79
2023/03/11 10:51:45;;;;;;;5.38;1.60;;;;;;;4.62;100.00;100999.09;5017385;28;20071;-78
2023/03/11 10:54:34;;;;;;;4.43;1.13;;;;;;;4.67;100.00;100992.31;5024439;28;20045;-79
2023/03/11 10:57:05;;;;;;;8.15;1.98;;;;;;;4.72;100.00;100988.94;5023434;28;20079;-78
2023/03/11 10:59:33;;;;;;;;;;;;;;;4.80;100.00;100998.78;4990219;28;20513;-78
2023/03/11 11:02:24;;;;;;;5.85;1.50;;;;;;;4.91;100.00;100992.97;5025757;28;19929;-77
2023/03/11 11:05:24;;;;;;;4.43;1.30;;;;;;;4.84;100.00;101000.63;5043832;28;20051;-78
2023/03/11 11:08:02;;;;;;;3.55;1.10;;;;;;;4.79;100.00;101006.56;5026514;28;20064;-78
2023/03/11 11:10:31;;;;;;;3.75;1.00;;;;;;;4.77;100.00;101005.63;5014912;28;20048;-78
2023/03/11 11:13:15;;;;;;;5.72;1.35;;;;;;;4.82;100.00;100999.69;5037644;28;20071;-78
2023/03/11 11:15:53;;;;;;;2.05;1.05;;;;;;;4.93;100.00;100994.75;5004360;28;20041;-77
2023/03/11 11:18:25;;;;;;;3.80;1.20;;;;;;;4.99;100.00;101005.41;5049698;28;20040;-77
2023/03/11 11:21:12;;;;;;;3.67;0.95;;;;;;;5.06;100.00;101003.84;5020868;28;20056;-77
2023/03/11 11:23:42;;;;;;;3.75;1.33;;;;;;;5.12;100.00;101009.22;5056180;28;20057;-78
2023/03/11 11:26:36;;;;;;;3.08;1.05;;;;;;;5.14;100.00;100996.22;5044951;28;20041;-77
2023/03/11 11:29:06;;;;;;;5.45;1.65;;;;;;;5.18;100.00;101000.66;4954743;28;20674;-79
2023/03/11 11:31:37;;;;;;;4.13;1.20;;;;;;;5.21;100.00;100985.97;5037608;28;20041;-79
2023/03/11 11:34:26;;;;;;;2.53;1.05;;;;;;;5.27;100.00;100995.69;5029369;28;20053;-77
2023/03/11 11:36:56;;;;;;;2.95;1.40;;;;;;;5.32;100.00;100990.63;5013564;28;20499;-78
2023/03/11 11:39:25;;;;;;;4.63;1.60;;;;;;;5.33;100.00;100989.75;5027236;28;20064;-78